Time;durP1;ratioP1;P1;durP2;ratioP2;P2;SDS_P1;SDS_P2;PMS_P1;PMS_P2;Temp;Humidity;BMP_temperature;BMP_pressure;BME280_temperature;BME280_humidity;BME280_pressure;Samples;Min_cycle;Max_cycle;Signal;HPM_P1;HPM_P2
2022/01/13 00:01:55;;;;;;;103.82;27.48;;;5.20;99.90;;;;;;5108110;27;20030;-83
2022/01/13 00:04:21;;;;;;;106.15;27.35;;;5.20;99.90;;;;;;5131589;27;20031;-83
2022/01/13 00:06:47;;;;;;;87.72;24.42;;;5.20;99.90;;;;;;5136359;27;20035;-83
2022/01/13 00:09:14;;;;;;;95.20;27.20;;;5.20;99.90;;;;;;5135315;27;20377;-83
2022/01/13 00:11:40;;;;;;;105.20;26.30;;;5.20;99.90;;;;;;5109641;27;20050;-83
2022/01/13 00:16:44;;;;;;;115.75;26.50;;;5.10;99.90;;;;;;5134725;27;20122;-82
2022/01/13 00:21:48;;;;;;;90.35;25.50;;;5.00;99.90;;;;;;5126824;27;20075;-83
2022/01/13 00:24:13;;;;;;;81.18;24.27;;;5.00;99.90;;;;;;5115945;27;20130;-83
2022/01/13 00:26:40;;;;;;;92.75;22.92;;;5.00;99.90;;;;;;5117335;27;20601;-83
2022/01/13 00:29:07;;;;;;;70.47;21.13;;;5.00;99.90;;;;;;5115004;27;20062;-83
2022/01/13 00:31:35;;;;;;;81.80;21.88;;;5.10;99.90;;;;;;5125335;27;20035;-83
2022/01/13 00:34:05;;;;;;;82.43;21.38;;;5.00;99.90;;;;;;5100635;27;20125;-82
2022/01/13 00:36:33;;;;;;;69.35;19.75;;;5.00;99.90;;;;;;5097548;27;20031;-83
2022/01/13 00:38:59;;;;;;;63.95;18.60;;;5.00;99.90;;;;;;5109337;27;20038;-83
2022/01/13 00:41:27;;;;;;;70.13;19.25;;;5.00;99.90;;;;;;5121332;27;20035;-83
2022/01/13 00:43:54;;;;;;;68.47;19.27;;;5.10;99.90;;;;;;5128936;27;20070;-83
2022/01/13 00:46:22;;;;;;;64.82;18.98;;;5.00;99.90;;;;;;5119291;27;20070;-83
2022/01/13 00:48:53;;;;;;;53.97;18.42;;;5.00;99.90;;;;;;5129785;27;20106;-82
2022/01/13 00:51:20;;;;;;;60.17;18.58;;;5.00;99.90;;;;;;5107283;27;20043;-83
2022/01/13 00:53:46;;;;;;;56.80;18.30;;;5.10;99.90;;;;;;5117641;27;20027;-82
2022/01/13 00:56:12;;;;;;;57.95;18.05;;;5.10;99.90;;;;;;5116005;27;20129;-82
2022/01/13 00:58:38;;;;;;;57.42;19.88;;;5.00;99.90;;;;;;5133839;27;20035;-83
2022/01/13 01:01:06;;;;;;;55.08;19.60;;;5.00;99.90;;;;;;5098737;27;20047;-82
2022/01/13 01:03:33;;;;;;;53.75;20.10;;;5.00;99.90;;;;;;5129552;27;20484;-83
2022/01/13 01:06:00;;;;;;;57.53;19.92;;;5.00;99.90;;;;;;5128070;27;20092;-82
2022/01/13 01:08:26;;;;;;;50.78;19.35;;;5.00;99.90;;;;;;5130372;27;20072;-83
2022/01/13 01:10:54;;;;;;;61.47;21.30;;;5.00;99.90;;;;;;5130745;27;20035;-83
2022/01/13 01:13:25;;;;;;;66.28;21.70;;;4.90;99.90;;;;;;5126976;27;20381;-83
2022/01/13 01:15:54;;;;;;;65.20;19.90;;;4.90;99.90;;;;;;5123988;27;20122;-83
2022/01/13 01:18:32;;;;;;;60.55;21.63;;;5.00;99.90;;;;;;5115757;27;20039;-83
2022/01/13 01:21:32;;;;;;;62.47;20.52;;;5.00;99.90;;;;;;5126249;27;20105;-83
2022/01/13 01:26:43;;;;;;;58.20;21.52;;;4.90;99.90;;;;;;5111979;27;20182;-82
2022/01/13 01:30:02;;;;;;;53.72;19.92;;;4.90;99.90;;;;;;5093258;27;20050;-82
2022/01/13 01:31:58;;;;;;;56.25;18.95;;;4.90;99.90;;;;;;5090662;28;20493;-83
2022/01/13 01:34:43;;;;;;;68.93;21.38;;;4.90;99.90;;;;;;5094979;27;20481;-83
2022/01/13 01:37:17;;;;;;;;;;;5.00;99.90;;;;;;5095179;28;20039;-82
2022/01/13 01:39:45;;;;;;;60.58;20.65;;;5.00;99.90;;;;;;5095084;28;19916;-83
2022/01/13 01:42:10;;;;;;;65.97;20.15;;;5.00;99.90;;;;;;5120845;27;20377;-82
2022/01/13 01:44:41;;;;;;;71.68;20.38;;;4.90;99.90;;;;;;5132278;27;20049;-83
2022/01/13 01:47:09;;;;;;;78.40;22.05;;;4.90;99.90;;;;;;5124321;27;20042;-82
2022/01/13 01:49:40;;;;;;;80.75;21.38;;;4.90;99.90;;;;;;5122563;27;20369;-82
2022/01/13 01:52:07;;;;;;;74.30;20.05;;;4.90;99.90;;;;;;5120805;27;20050;-82
2022/01/13 01:54:32;;;;;;;62.15;20.08;;;4.80;99.90;;;;;;5131549;27;20031;-83
2022/01/13 01:56:58;;;;;;;70.60;21.15;;;4.80;99.90;;;;;;5126808;27;20510;-83
2022/01/13 01:59:28;;;;;;;73.40;20.20;;;4.80;99.90;;;;;;5124928;27;20076;-84
2022/01/13 02:01:54;;;;;;;69.25;19.58;;;4.80;99.90;;;;;;5123468;27;20033;-83
2022/01/13 02:04:22;;;;;;;62.33;19.48;;;4.80;99.90;;;;;;5113971;27;20441;-83
2022/01/13 02:06:48;;;;;;;57.00;19.25;;;4.80;99.90;;;;;;5112178;27;20035;-83
2022/01/13 02:09:20;;;;;;;68.95;20.55;;;4.80;99.90;;;;;;5114147;27;20037;-83
2022/01/13 02:11:50;;;;;;;65.43;20.42;;;4.70;99.90;;;;;;5119766;27;20034;-82
2022/01/13 02:14:34;;;;;;;63.30;19.65;;;4.70;99.90;;;;;;5118981;27;20114;-83
2022/01/13 02:17:05;;;;;;;62.35;18.98;;;4.80;99.90;;;;;;5120113;27;20656;-83
2022/01/13 02:19:33;;;;;;;51.25;18.67;;;4.80;99.90;;;;;;5131326;27;20128;-83
2022/01/13 02:21:59;;;;;;;56.53;18.50;;;4.70;99.90;;;;;;5126213;27;20039;-83
2022/01/13 02:24:26;;;;;;;67.22;21.17;;;4.80;99.90;;;;;;5117617;27;20050;-83
2022/01/13 02:26:51;;;;;;;62.53;20.23;;;4.80;99.90;;;;;;5124434;27;20114;-83
2022/01/13 02:29:17;;;;;;;60.08;19.33;;;4.80;99.90;;;;;;5131591;27;20563;-82
2022/01/13 02:31:42;;;;;;;70.45;20.33;;;4.80;99.90;;;;;;5131079;27;20142;-83
2022/01/13 02:34:08;;;;;;;65.72;21.13;;;4.80;99.90;;;;;;5105324;27;20059;-83
2022/01/13 02:36:34;;;;;;;66.60;20.30;;;4.80;99.90;;;;;;5131018;27;20034;-83
2022/01/13 02:39:04;;;;;;;64.93;20.30;;;4.80;99.90;;;;;;5124433;27;20035;-83
2022/01/13 02:41:30;;;;;;;55.13;19.50;;;4.90;99.90;;;;;;5095497;27;20031;-83
2022/01/13 02:43:58;;;;;;;61.67;19.55;;;4.80;99.90;;;;;;5125633;27;20113;-83
2022/01/13 02:49:06;;;;;;;65.03;19.83;;;4.90;99.90;;;;;;5127287;27;20039;-83
2022/01/13 02:51:32;;;;;;;63.67;19.80;;;4.80;99.90;;;;;;5117784;28;20580;-83
2022/01/13 02:53:58;;;;;;;54.53;18.15;;;4.80;99.90;;;;;;5117322;27;20167;-83
2022/01/13 02:56:24;;;;;;;57.58;19.20;;;4.90;99.90;;;;;;5113407;27;20067;-83
2022/01/13 02:58:50;;;;;;;60.47;17.85;;;4.80;99.90;;;;;;5107433;27;20031;-83
2022/01/13 03:01:16;;;;;;;60.85;19.23;;;4.80;99.90;;;;;;5122833;27;20038;-84
2022/01/13 03:03:43;;;;;;;60.05;17.95;;;4.80;99.90;;;;;;5118728;27;20412;-84
2022/01/13 03:06:12;;;;;;;63.25;19.83;;;4.80;99.90;;;;;;5123079;27;20054;-83
2022/01/13 03:08:41;;;;;;;61.60;19.63;;;4.80;99.90;;;;;;5109270;27;20046;-82
2022/01/13 03:11:07;;;;;;;58.33;17.45;;;4.80;99.90;;;;;;5111361;27;20086;-84
2022/01/13 03:13:33;;;;;;;61.75;18.02;;;4.80;99.90;;;;;;5104920;27;20031;-83
2022/01/13 03:15:58;;;;;;;68.03;19.83;;;4.80;99.90;;;;;;5135591;27;20100;-83
2022/01/13 03:18:24;;;;;;;46.63;17.92;;;4.80;99.90;;;;;;5131511;27;20179;-83
2022/01/13 03:20:49;;;;;;;72.22;19.50;;;4.80;99.90;;;;;;5135424;27;20395;-83
2022/01/13 03:23:17;;;;;;;72.22;20.08;;;4.80;99.90;;;;;;5125403;27;20547;-83
2022/01/13 03:25:45;;;;;;;72.32;19.13;;;4.80;99.90;;;;;;5114158;27;20041;-82
2022/01/13 03:28:17;;;;;;;76.13;18.58;;;4.80;99.90;;;;;;5124784;27;20063;-83
2022/01/13 03:30:43;;;;;;;64.78;18.95;;;4.70;99.90;;;;;;5129146;27;20544;-83
2022/01/13 03:33:11;;;;;;;62.47;18.95;;;4.70;99.90;;;;;;5111414;27;20047;-82
2022/01/13 03:35:38;;;;;;;63.60;18.83;;;4.70;99.90;;;;;;5134490;27;20042;-83
2022/01/13 03:38:05;;;;;;;71.80;19.50;;;4.70;99.90;;;;;;5126777;27;20174;-83
2022/01/13 03:40:31;;;;;;;69.45;20.40;;;4.70;99.90;;;;;;5102311;27;20031;-83
2022/01/13 03:42:58;;;;;;;57.22;19.10;;;4.70;99.90;;;;;;5122222;27;20049;-83
2022/01/13 03:45:23;;;;;;;79.30;19.85;;;4.70;99.90;;;;;;5126533;27;20076;-83
2022/01/13 03:47:49;;;;;;;93.30;19.90;;;4.80;99.90;;;;;;5134530;27;20475;-83
2022/01/13 03:50:15;;;;;;;86.72;19.60;;;4.70;99.90;;;;;;5132923;27;20368;-83
2022/01/13 03:53:15;;;;;;;81.55;20.13;;;4.70;99.90;;;;;;5125708;27;20126;-83
2022/01/13 03:56:22;;;;;;;87.68;20.05;;;4.60;99.90;;;;;;5104395;27;20039;-83
2022/01/13 03:59:33;;;;;;;96.75;20.13;;;4.70;99.90;;;;;;5124623;27;20035;-83
2022/01/13 04:02:06;;;;;;;89.22;20.77;;;4.70;99.90;;;;;;5131395;27;20039;-83
2022/01/13 04:04:36;;;;;;;89.82;20.67;;;4.70;99.90;;;;;;5127688;27;20107;-83
2022/01/13 04:07:06;;;;;;;101.45;20.02;;;4.70;99.90;;;;;;5134410;27;20490;-83
2022/01/13 04:09:35;;;;;;;91.85;20.05;;;4.70;99.90;;;;;;5104774;27;20500;-84
2022/01/13 04:12:04;;;;;;;122.80;21.83;;;4.70;99.90;;;;;;5116140;27;20450;-84
2022/01/13 04:14:38;;;;;;;94.72;20.20;;;4.70;99.90;;;;;;5118953;27;20126;-83
2022/01/13 04:17:04;;;;;;;;;;;4.70;99.90;;;;;;5118776;27;20043;-83
2022/01/13 04:19:29;;;;;;;105.15;19.38;;;4.80;99.90;;;;;;5123551;27;20291;-84
2022/01/13 04:21:55;;;;;;;84.25;19.45;;;4.80;99.90;;;;;;5133547;27;20038;-83
2022/01/13 04:24:21;;;;;;;104.13;19.65;;;4.80;99.90;;;;;;5119606;27;20045;-83
2022/01/13 04:26:47;;;;;;;78.07;18.85;;;4.80;99.90;;;;;;5122701;27;20039;-84
2022/01/13 04:31:40;;;;;;;75.72;19.95;;;4.80;99.90;;;;;;5120829;27;20050;-83
2022/01/13 04:34:06;;;;;;;100.07;21.63;;;4.80;99.90;;;;;;5130315;27;20046;-83
2022/01/13 04:36:32;;;;;;;93.20;20.23;;;4.80;99.90;;;;;;5121855;27;20039;-83
2022/01/13 04:38:57;;;;;;;96.65;21.20;;;4.90;99.90;;;;;;5102731;27;20027;-83
2022/01/13 04:41:33;;;;;;;107.72;22.50;;;4.90;99.90;;;;;;5118078;27;20476;-82
2022/01/13 04:43:59;;;;;;;92.75;20.30;;;4.90;99.90;;;;;;5116377;27;20039;-83
2022/01/13 04:46:25;;;;;;;98.60;19.30;;;4.90;99.90;;;;;;5127016;27;20073;-83
2022/01/13 04:48:51;;;;;;;102.47;19.85;;;4.90;99.90;;;;;;5116805;27;20279;-83
2022/01/13 04:51:16;;;;;;;139.90;23.52;;;4.80;99.90;;;;;;5131057;27;20499;-83
2022/01/13 04:53:42;;;;;;;89.28;20.70;;;4.90;99.90;;;;;;5115909;27;20074;-83
2022/01/13 04:56:14;;;;;;;97.20;22.42;;;4.90;99.90;;;;;;5112012;27;20035;-82
2022/01/13 04:58:40;;;;;;;98.50;22.48;;;4.90;99.90;;;;;;5110284;27;20032;-83
2022/01/13 05:01:07;;;;;;;108.90;21.88;;;4.90;99.90;;;;;;5104506;28;20161;-83
2022/01/13 05:03:32;;;;;;;89.50;20.08;;;4.90;99.90;;;;;;5095008;27;20500;-84
2022/01/13 05:05:58;;;;;;;119.43;21.60;;;4.90;99.90;;;;;;5120144;27;20130;-83
2022/01/13 05:08:23;;;;;;;122.57;21.75;;;4.90;99.90;;;;;;5115296;27;20061;-83
2022/01/13 05:10:49;;;;;;;156.52;22.20;;;4.90;99.90;;;;;;5126619;27;20031;-83
2022/01/13 05:13:15;;;;;;;112.65;20.50;;;4.90;99.90;;;;;;5114956;27;20454;-83
2022/01/13 05:15:43;;;;;;;136.25;18.95;;;4.90;99.90;;;;;;5108134;27;20452;-83
2022/01/13 05:23:14;;;;;;;124.45;19.33;;;4.90;99.90;;;;;;5115003;27;20053;-83
2022/01/13 05:25:41;;;;;;;136.65;19.77;;;4.90;99.90;;;;;;5126442;27;20031;-83
2022/01/13 05:28:07;;;;;;;116.38;18.83;;;4.90;99.90;;;;;;5099631;27;20086;-83
2022/01/13 05:30:32;;;;;;;111.10;18.70;;;4.90;99.90;;;;;;5113116;27;20062;-83
2022/01/13 05:32:58;;;;;;;113.70;18.60;;;5.00;99.90;;;;;;5120278;27;20053;-83
2022/01/13 05:35:25;;;;;;;124.55;19.30;;;5.00;99.90;;;;;;5122381;27;20038;-83
2022/01/13 05:37:51;;;;;;;106.53;18.42;;;5.00;99.90;;;;;;5116264;27;20085;-83
2022/01/13 05:40:16;;;;;;;150.45;20.33;;;5.00;99.90;;;;;;5125054;27;20038;-83
2022/01/13 05:42:42;;;;;;;169.65;21.95;;;5.00;99.90;;;;;;5122572;27;20035;-83
2022/01/13 05:45:19;;;;;;;155.95;21.80;;;5.00;99.90;;;;;;5122071;27;20448;-83
2022/01/13 05:47:47;;;;;;;122.15;18.90;;;5.00;99.90;;;;;;5121335;27;20444;-83
2022/01/13 05:50:15;;;;;;;122.22;21.80;;;5.00;99.90;;;;;;5114384;27;20035;-83
2022/01/13 05:52:41;;;;;;;160.55;20.55;;;5.10;99.90;;;;;;5110000;27;20108;-84
2022/01/13 05:55:07;;;;;;;203.18;24.35;;;5.10;99.90;;;;;;5116047;27;20470;-84
2022/01/13 05:57:33;;;;;;;167.23;23.48;;;5.10;99.90;;;;;;5123263;27;20117;-83
2022/01/13 05:59:58;;;;;;;236.13;24.45;;;5.10;99.90;;;;;;5100136;27;20117;-83
2022/01/13 06:02:24;;;;;;;171.57;22.90;;;5.20;99.90;;;;;;5128951;27;20054;-83
2022/01/13 06:04:50;;;;;;;136.70;21.95;;;5.20;99.90;;;;;;5120520;27;20039;-83
2022/01/13 06:07:16;;;;;;;159.10;23.23;;;5.20;99.90;;;;;;5130733;27;20524;-83
2022/01/13 06:09:43;;;;;;;116.63;21.85;;;5.20;99.90;;;;;;5132643;27;20035;-83
2022/01/13 06:12:09;;;;;;;127.63;23.00;;;5.20;99.90;;;;;;5113871;27;20415;-82
2022/01/13 06:14:35;;;;;;;133.55;22.55;;;5.20;99.90;;;;;;5105628;27;20082;-83
2022/01/13 06:17:00;;;;;;;128.02;25.05;;;5.30;99.90;;;;;;5112014;27;20046;-84
2022/01/13 06:19:26;;;;;;;145.68;24.00;;;5.30;99.90;;;;;;5111541;27;20066;-83
2022/01/13 06:21:52;;;;;;;115.32;23.35;;;5.30;99.90;;;;;;5124283;27;20047;-84
2022/01/13 06:24:17;;;;;;;136.63;23.65;;;5.30;99.90;;;;;;5123047;27;20049;-83
2022/01/13 06:26:43;;;;;;;126.80;25.05;;;5.40;99.90;;;;;;5121642;27;20073;-83
2022/01/13 06:29:09;;;;;;;102.35;22.55;;;5.40;99.90;;;;;;5102749;27;20422;-83
2022/01/13 06:31:34;;;;;;;134.38;24.67;;;5.40;99.90;;;;;;5096436;27;20031;-82
2022/01/13 06:34:00;;;;;;;127.57;25.85;;;5.40;99.90;;;;;;5124448;27;20042;-84
2022/01/13 06:36:25;;;;;;;115.78;26.02;;;5.40;99.90;;;;;;5118797;27;20039;-83
2022/01/13 06:38:51;;;;;;;142.98;26.30;;;5.50;99.90;;;;;;5114948;27;20035;-83
2022/01/13 06:41:17;;;;;;;122.00;25.25;;;5.50;99.90;;;;;;5115026;27;20035;-83
2022/01/13 06:43:43;;;;;;;118.35;25.58;;;5.60;99.90;;;;;;5118471;27;20039;-86
2022/01/13 06:46:11;;;;;;;93.45;22.90;;;5.50;99.90;;;;;;5101587;27;20117;-83
2022/01/13 06:48:37;;;;;;;129.13;26.60;;;5.60;99.90;;;;;;5104972;27;20059;-83
2022/01/13 06:51:03;;;;;;;131.55;26.92;;;5.60;99.90;;;;;;5125021;27;20097;-84
2022/01/13 06:53:28;;;;;;;121.18;27.27;;;5.60;99.90;;;;;;5132218;27;20057;-83
2022/01/13 06:55:54;;;;;;;126.85;27.88;;;5.60;99.90;;;;;;5116892;27;20053;-83
2022/01/13 06:58:19;;;;;;;114.68;25.67;;;5.70;99.90;;;;;;5122712;27;20046;-83
2022/01/13 07:00:45;;;;;;;136.07;28.30;;;5.70;99.90;;;;;;5127562;27;20075;-83
2022/01/13 07:03:11;;;;;;;139.75;27.02;;;5.70;99.90;;;;;;5120686;27;20035;-82
2022/01/13 07:05:36;;;;;;;137.05;27.73;;;5.70;99.90;;;;;;5119745;27;20122;-82
2022/01/13 07:08:03;;;;;;;132.18;28.27;;;5.70;99.90;;;;;;5120755;27;20051;-82
2022/01/13 07:10:29;;;;;;;146.18;29.70;;;5.70;99.90;;;;;;5100593;27;20039;-83
2022/01/13 07:12:54;;;;;;;129.50;28.15;;;5.70;99.90;;;;;;5122975;27;20046;-84
2022/01/13 07:15:20;;;;;;;157.10;29.17;;;5.70;99.90;;;;;;5135039;27;20062;-83
2022/01/13 07:17:46;;;;;;;141.35;29.92;;;5.70;99.90;;;;;;5108204;27;20034;-83
2022/01/13 07:20:12;;;;;;;147.27;27.77;;;5.70;99.90;;;;;;5128977;27;20399;-84
2022/01/13 07:22:39;;;;;;;128.55;26.33;;;5.70;99.90;;;;;;5122772;27;20135;-82
2022/01/13 07:25:06;;;;;;;133.88;27.73;;;5.80;99.90;;;;;;5111731;27;20039;-85
2022/01/13 07:27:31;;;;;;;135.90;29.63;;;5.80;99.90;;;;;;5109587;27;20088;-84
2022/01/13 07:29:57;;;;;;;103.45;25.95;;;5.80;99.90;;;;;;5108092;27;20054;-84
2022/01/13 07:32:22;;;;;;;142.90;29.48;;;5.80;99.90;;;;;;5098598;27;20035;-84
2022/01/13 07:34:48;;;;;;;137.05;27.50;;;5.80;99.90;;;;;;5098746;28;20072;-84
2022/01/13 07:37:13;;;;;;;129.13;28.00;;;5.80;99.90;;;;;;5110575;27;20031;-84
2022/01/13 07:39:39;;;;;;;134.55;27.23;;;5.70;99.90;;;;;;5112121;27;20061;-84
2022/01/13 07:42:06;;;;;;;101.78;24.60;;;5.80;99.90;;;;;;5117985;27;20457;-84
2022/01/13 07:44:31;;;;;;;117.78;26.85;;;5.80;99.90;;;;;;5116423;27;20112;-84
2022/01/13 07:46:58;;;;;;;116.60;26.70;;;5.80;99.90;;;;;;5104126;27;20103;-84
2022/01/13 07:49:25;;;;;;;122.80;27.00;;;5.80;99.90;;;;;;5124607;27;20448;-83
2022/01/13 07:51:50;;;;;;;126.35;28.05;;;5.80;99.90;;;;;;5120142;27;20092;-83
2022/01/13 07:54:16;;;;;;;132.18;26.75;;;5.70;99.90;;;;;;5110271;27;20075;-83
2022/01/13 07:56:41;;;;;;;151.40;28.38;;;5.70;99.90;;;;;;5135387;27;20046;-83
2022/01/13 07:59:07;;;;;;;112.15;26.35;;;5.70;99.90;;;;;;5123083;27;20061;-85
2022/01/13 08:01:32;;;;;;;110.90;27.35;;;5.80;99.90;;;;;;5117445;27;20039;-83
2022/01/13 08:03:58;;;;;;;122.35;27.45;;;5.70;99.90;;;;;;5117949;27;20033;-85
2022/01/13 08:06:23;;;;;;;136.00;28.98;;;5.70;99.90;;;;;;5133297;27;20049;-83
2022/01/13 08:08:49;;;;;;;106.82;25.38;;;5.70;99.90;;;;;;5130822;27;20042;-84
2022/01/13 08:11:16;;;;;;;105.68;24.52;;;5.70;99.90;;;;;;5114984;27;20064;-84
2022/01/13 08:13:42;;;;;;;98.05;24.63;;;5.70;99.90;;;;;;5122856;27;20043;-84
2022/01/13 08:16:09;;;;;;;112.25;25.38;;;5.80;99.90;;;;;;5116580;27;20036;-83
2022/01/13 08:21:21;;;;;;;98.70;24.90;;;5.70;99.90;;;;;;5119519;27;20043;-83
2022/01/13 08:23:46;;;;;;;100.25;25.08;;;5.70;99.90;;;;;;5124615;27;20083;-83
2022/01/13 08:26:12;;;;;;;98.75;24.40;;;5.70;99.90;;;;;;5131449;27;20035;-84
2022/01/13 08:28:38;;;;;;;99.95;25.73;;;5.70;99.90;;;;;;5108808;27;20122;-83
2022/01/13 08:31:03;;;;;;;111.63;27.75;;;5.70;99.90;;;;;;5103585;27;20043;-83
2022/01/13 08:33:30;;;;;;;94.50;25.65;;;5.80;99.90;;;;;;5121607;27;20075;-83
2022/01/13 08:35:56;;;;;;;107.90;28.30;;;5.80;99.90;;;;;;5119201;27;20074;-83
2022/01/13 08:38:23;;;;;;;95.97;24.77;;;5.80;99.90;;;;;;5114002;27;20075;-83
2022/01/13 08:40:53;;;;;;;98.88;26.58;;;5.80;99.90;;;;;;5133316;27;20114;-84
2022/01/13 08:43:20;;;;;;;103.53;26.48;;;5.80;99.90;;;;;;5104203;27;20172;-83
2022/01/13 08:45:46;;;;;;;102.60;27.10;;;5.80;99.90;;;;;;5115474;27;20152;-83
2022/01/13 08:48:12;;;;;;;96.72;27.35;;;5.80;99.90;;;;;;5115746;27;20087;-83
2022/01/13 08:50:38;;;;;;;105.80;28.38;;;5.80;99.90;;;;;;5132202;27;20070;-83
2022/01/13 08:53:05;;;;;;;97.18;27.00;;;5.80;99.90;;;;;;5129194;27;20118;-84
2022/01/13 08:55:30;;;;;;;102.15;26.60;;;5.80;99.90;;;;;;5128984;27;20073;-83
2022/01/13 08:57:56;;;;;;;92.85;24.95;;;5.80;99.90;;;;;;5131951;27;20063;-83
2022/01/13 09:00:22;;;;;;;102.05;27.35;;;5.80;99.90;;;;;;5132872;27;20035;-83
2022/01/13 09:02:47;;;;;;;90.57;25.58;;;5.80;99.90;;;;;;5117455;27;20062;-83
2022/01/13 09:05:15;;;;;;;103.05;27.17;;;5.80;99.90;;;;;;5097658;27;20046;-83
2022/01/13 09:07:41;;;;;;;102.03;27.45;;;5.80;99.90;;;;;;5116351;27;20035;-83
2022/01/13 09:10:08;;;;;;;102.97;26.77;;;5.80;99.90;;;;;;5101901;27;20165;-83
2022/01/13 09:12:34;;;;;;;90.70;27.02;;;5.80;99.90;;;;;;5127985;27;20039;-83
2022/01/13 09:15:14;;;;;;;94.75;27.35;;;5.80;99.90;;;;;;5116003;27;20033;-83
2022/01/13 09:17:42;;;;;;;95.97;27.65;;;5.90;99.90;;;;;;5115177;27;20038;-84
2022/01/13 09:20:10;;;;;;;96.78;27.50;;;5.90;99.90;;;;;;5114540;27;20042;-83
2022/01/13 09:22:36;;;;;;;119.28;29.17;;;5.90;99.90;;;;;;5115488;27;20047;-83
2022/01/13 09:25:01;;;;;;;108.05;28.50;;;5.90;99.90;;;;;;5110574;27;20039;-83
2022/01/13 09:27:27;;;;;;;98.72;27.95;;;5.80;99.90;;;;;;5094864;28;20032;-83
2022/01/13 09:29:53;;;;;;;100.40;29.00;;;5.90;99.90;;;;;;5096328;28;20039;-84
2022/01/13 09:32:18;;;;;;;101.03;28.25;;;5.90;99.90;;;;;;5086126;28;20031;-83
2022/01/13 09:34:44;;;;;;;86.82;27.63;;;6.00;99.90;;;;;;5095758;28;20042;-83
2022/01/13 09:37:11;;;;;;;79.70;26.52;;;5.90;99.90;;;;;;5085338;28;20027;-83
2022/01/13 09:39:37;;;;;;;87.40;27.30;;;6.00;99.90;;;;;;5108630;28;20046;-83
2022/01/13 09:42:04;;;;;;;88.95;27.15;;;6.00;99.90;;;;;;5088100;28;20039;-83
2022/01/13 09:44:30;;;;;;;96.43;28.00;;;6.00;99.90;;;;;;5099524;27;20051;-83
2022/01/13 09:46:56;;;;;;;97.65;29.40;;;6.00;99.90;;;;;;5100621;28;20034;-84
2022/01/13 09:49:22;;;;;;;107.78;29.58;;;6.00;99.90;;;;;;5111419;27;20035;-83
2022/01/13 09:51:47;;;;;;;94.88;29.55;;;6.00;99.90;;;;;;5106560;27;20130;-84
2022/01/13 09:54:14;;;;;;;106.68;29.92;;;6.00;99.90;;;;;;5094640;28;20511;-84
2022/01/13 09:56:40;;;;;;;93.90;27.65;;;6.00;99.90;;;;;;5084742;27;20114;-84
2022/01/13 09:59:06;;;;;;;81.72;27.20;;;6.10;99.90;;;;;;5094205;28;20027;-84
2022/01/13 10:01:32;;;;;;;110.03;30.60;;;6.10;99.90;;;;;;5110174;28;20061;-84
2022/01/13 10:03:58;;;;;;;96.20;29.80;;;6.20;99.90;;;;;;5094017;28;20493;-83
2022/01/13 10:06:23;;;;;;;89.70;29.38;;;6.10;99.90;;;;;;5108913;28;20035;-83
2022/01/13 10:08:53;;;;;;;87.43;28.60;;;6.20;99.90;;;;;;5104973;27;20039;-84
2022/01/13 10:11:39;;;;;;;95.32;29.25;;;6.20;99.90;;;;;;5112037;28;20039;-84
2022/01/13 10:16:59;;;;;;;75.88;26.45;;;6.10;99.90;;;;;;5110673;27;20041;-84
2022/01/13 10:19:46;;;;;;;86.38;28.63;;;6.20;99.90;;;;;;5097166;27;20031;-84
2022/01/13 10:22:14;;;;;;;87.00;28.00;;;6.20;99.90;;;;;;5110369;28;20144;-84
2022/01/13 10:24:43;;;;;;;88.05;29.02;;;6.20;99.90;;;;;;5106010;28;20032;-83
2022/01/13 10:27:21;;;;;;;83.13;26.88;;;6.20;99.90;;;;;;5082346;28;20043;-83
2022/01/13 10:29:50;;;;;;;80.38;27.20;;;6.20;99.90;;;;;;5107321;28;20031;-83
2022/01/13 10:32:17;;;;;;;73.95;27.20;;;6.20;99.90;;;;;;5106991;28;20036;-84
2022/01/13 10:34:46;;;;;;;67.07;25.60;;;6.20;99.90;;;;;;5089550;28;20113;-84
2022/01/13 10:37:27;;;;;;;79.28;26.75;;;6.20;99.90;;;;;;5087972;28;20524;-84
2022/01/13 10:39:52;;;;;;;67.78;26.98;;;6.20;99.90;;;;;;5092524;28;20031;-84
2022/01/13 10:45:20;;;;;;;72.97;26.88;;;6.20;99.90;;;;;;5113360;28;20079;-84
2022/01/13 10:47:51;;;;;;;73.82;27.38;;;6.30;99.90;;;;;;5109974;28;20039;-84
2022/01/13 10:50:16;;;;;;;83.53;29.15;;;6.20;99.90;;;;;;5100977;28;20036;-84
2022/01/13 10:52:42;;;;;;;73.22;28.15;;;6.20;99.90;;;;;;5103480;28;20569;-83
2022/01/13 10:55:12;;;;;;;84.95;29.48;;;6.20;99.90;;;;;;5099677;28;20075;-84
2022/01/13 10:57:41;;;;;;;84.78;28.67;;;6.20;99.90;;;;;;5093840;27;20028;-83
2022/01/13 11:00:20;;;;;;;82.40;30.77;;;6.20;99.90;;;;;;5131110;27;20070;-84
2022/01/13 11:03:05;;;;;;;87.35;34.05;;;6.20;99.90;;;;;;5116647;27;20075;-83
2022/01/13 11:05:33;;;;;;;87.88;32.17;;;6.30;99.90;;;;;;5118876;27;20130;-83
2022/01/13 11:08:05;;;;;;;85.88;32.13;;;6.30;99.90;;;;;;5118445;27;20452;-83
2022/01/13 11:10:32;;;;;;;82.15;30.30;;;6.30;99.90;;;;;;5119542;27;20046;-84
2022/01/13 11:12:59;;;;;;;76.63;29.00;;;6.30;99.90;;;;;;5116043;27;20573;-84
2022/01/13 11:15:26;;;;;;;72.50;27.63;;;6.30;99.90;;;;;;5112144;27;20045;-84
2022/01/13 11:17:54;;;;;;;81.93;29.35;;;6.30;99.90;;;;;;5095900;27;20029;-84
2022/01/13 11:20:22;;;;;;;80.63;27.90;;;6.30;99.90;;;;;;5113411;28;20043;-84
2022/01/13 11:22:52;;;;;;;76.95;29.70;;;6.40;99.90;;;;;;5113810;27;20110;-83
2022/01/13 11:25:21;;;;;;;81.78;28.52;;;6.40;99.90;;;;;;5117676;27;20031;-83
2022/01/13 11:27:47;;;;;;;71.50;27.23;;;6.40;99.90;;;;;;5112907;27;20054;-84
2022/01/13 11:30:15;;;;;;;69.80;26.30;;;6.40;99.90;;;;;;5114958;27;20038;-84
2022/01/13 11:32:43;;;;;;;71.15;26.77;;;6.40;99.90;;;;;;5093176;27;20032;-84
2022/01/13 11:35:12;;;;;;;72.07;26.88;;;6.40;99.90;;;;;;5115458;27;20122;-84
2022/01/13 11:37:39;;;;;;;69.60;25.38;;;6.50;99.90;;;;;;5115262;27;20125;-84
2022/01/13 11:40:24;;;;;;;60.92;25.10;;;6.50;99.90;;;;;;5120632;27;20034;-86
2022/01/13 11:42:49;;;;;;;58.83;25.67;;;6.50;99.90;;;;;;5132272;27;20039;-85
2022/01/13 11:45:16;;;;;;;59.33;24.48;;;6.50;99.90;;;;;;5119799;27;20031;-84
2022/01/13 11:47:43;;;;;;;71.70;26.25;;;6.50;99.90;;;;;;5105212;27;20039;-84
2022/01/13 11:50:19;;;;;;;54.95;23.15;;;6.50;99.90;;;;;;5122637;27;20035;-85
2022/01/13 11:52:53;;;;;;;57.85;25.63;;;6.50;99.90;;;;;;5137559;27;20156;-84
2022/01/13 11:55:21;;;;;;;67.22;27.15;;;6.40;99.90;;;;;;5124120;27;20047;-84
2022/01/13 11:57:47;;;;;;;68.35;26.35;;;6.50;99.90;;;;;;5115621;27;20046;-84
2022/01/13 12:00:16;;;;;;;63.28;26.23;;;6.50;99.90;;;;;;5136896;27;20034;-84
2022/01/13 12:02:43;;;;;;;61.42;26.50;;;6.40;99.90;;;;;;5098131;28;20052;-83
2022/01/13 12:05:20;;;;;;;65.22;25.90;;;6.50;99.90;;;;;;5109845;27;20085;-84
2022/01/13 12:07:47;;;;;;;68.38;27.27;;;6.50;99.90;;;;;;5102466;27;20115;-84
2022/01/13 12:10:35;;;;;;;68.18;28.75;;;6.50;99.90;;;;;;5133962;27;20575;-84
2022/01/13 12:13:31;;;;;;;68.82;27.70;;;6.50;99.90;;;;;;5123524;27;20039;-84
2022/01/13 12:15:57;;;;;;;56.65;27.33;;;6.50;99.90;;;;;;5111658;27;20035;-84
2022/01/13 12:18:49;;;;;;;70.45;29.13;;;6.50;99.90;;;;;;5116173;27;20114;-84
2022/01/13 12:21:31;;;;;;;67.00;27.83;;;6.60;99.90;;;;;;5108143;27;20456;-84
2022/01/13 12:23:59;;;;;;;70.47;28.92;;;6.60;99.90;;;;;;5108501;27;20034;-85
2022/01/13 12:26:34;;;;;;;63.75;28.23;;;6.60;99.90;;;;;;5114115;27;20031;-84
2022/01/13 12:29:13;;;;;;;64.32;28.20;;;6.60;99.90;;;;;;5096116;27;20039;-84
2022/01/13 12:32:06;;;;;;;60.72;26.83;;;6.60;99.90;;;;;;5087938;27;20050;-84
2022/01/13 12:34:35;;;;;;;57.78;26.75;;;6.80;99.90;;;;;;5100276;27;20046;-85
2022/01/13 12:37:13;;;;;;;55.55;25.40;;;6.70;99.90;;;;;;5082723;27;20034;-84
2022/01/13 12:39:46;;;;;;;60.88;28.60;;;6.80;99.90;;;;;;5095317;27;20035;-84
2022/01/13 12:42:18;;;;;;;58.42;27.83;;;6.80;99.90;;;;;;5086182;27;20056;-85
2022/01/13 12:47:28;;;;;;;58.38;27.13;;;6.90;99.90;;;;;;5095133;27;20076;-85
2022/01/13 12:49:54;;;;;;;59.80;27.70;;;6.90;99.90;;;;;;5082506;28;20031;-85
2022/01/13 12:52:22;;;;;;;51.35;27.13;;;7.00;99.90;;;;;;5108712;27;20057;-84
2022/01/13 12:54:48;;;;;;;51.10;26.95;;;7.00;99.90;;;;;;5088571;27;20031;-86
2022/01/13 12:57:15;;;;;;;48.95;25.95;;;7.00;99.90;;;;;;5092389;27;20031;-85
2022/01/13 12:59:42;;;;;;;48.38;24.38;;;7.10;99.90;;;;;;5085311;27;20455;-85
2022/01/13 13:02:08;;;;;;;52.28;26.90;;;7.20;99.90;;;;;;5120640;27;20068;-85
2022/01/13 13:04:37;;;;;;;53.67;26.02;;;7.20;99.90;;;;;;5096876;27;20399;-85
2022/01/13 13:07:05;;;;;;;47.72;26.38;;;7.20;99.90;;;;;;5111582;27;20408;-85
2022/01/13 13:09:31;;;;;;;45.75;25.30;;;7.30;99.90;;;;;;5104259;27;20043;-85